Mount Pleasant, Washington
Current Conditions -  °F | °C
As of 12:53 AM on Monday 24 Nov 2014 (Local Time) from KCLM Reporting Station
Clear Clear  
Wind Chill: 40°   Ceiling: Unl
Heat Index: 44°   Visibility: 10mi
Dew Point: 35°   Wind: 8mph
Humidity: 71%   Direction: 230°SW
Pressure: 30.32"   Gusts: NA
Location:  48.0203°N, 123.478°W
Report Text: KCLM 240853Z AUTO 23007KT 10SM CLR 07/02 A3032 RMK AO2 SLP269 T00670017 50014 $
Loading
Personal Weather Stations






























Interactive Weather Map New forecast layout! Learn more

10-Day Weather Forecast

Advertisements
Track Severe Weather on mobile